createdAt,value
2018-11-29T00:00:25.871Z,9.50
2018-11-29T00:02:54.502Z,9.50
2018-11-29T00:05:22.953Z,9.50
2018-11-29T00:07:51.458Z,9.50
2018-11-29T00:10:20.376Z,9.60
2018-11-29T00:12:49.148Z,9.60
2018-11-29T00:15:17.717Z,9.60
2018-11-29T00:17:46.164Z,9.60
2018-11-29T00:20:15.758Z,9.60
2018-11-29T00:22:45.053Z,9.60
2018-11-29T00:25:14.394Z,9.60
2018-11-29T00:27:42.962Z,9.60
2018-11-29T00:30:14.283Z,9.60
2018-11-29T00:32:43.078Z,9.60
2018-11-29T00:35:12.326Z,9.60
2018-11-29T00:37:40.810Z,9.60
2018-11-29T00:40:13.302Z,9.60
2018-11-29T00:42:42.128Z,9.60
2018-11-29T00:45:14.876Z,9.60
2018-11-29T00:47:43.635Z,9.60
2018-11-29T00:50:12.992Z,9.60
2018-11-29T00:52:42.352Z,9.70
2018-11-29T00:55:11.834Z,9.70
2018-11-29T00:57:40.478Z,9.70
2018-11-29T01:00:13.502Z,9.70
2018-11-29T01:02:42.321Z,9.70
2018-11-29T01:05:11.210Z,9.70
2018-11-29T01:07:39.897Z,9.70
2018-11-29T01:10:11.609Z,9.80
2018-11-29T01:12:40.064Z,9.80
2018-11-29T01:15:11.745Z,9.80
2018-11-29T01:17:40.274Z,9.80
2018-11-29T01:20:12.751Z,9.90
2018-11-29T01:22:41.164Z,9.90
2018-11-29T01:25:11.194Z,9.90
2018-11-29T01:27:39.873Z,9.90
2018-11-29T01:30:10.695Z,9.90
2018-11-29T01:32:39.472Z,9.90
2018-11-29T01:35:08.992Z,9.80
2018-11-29T01:37:37.456Z,9.80
2018-11-29T01:40:15.038Z,9.80
2018-11-29T01:42:44.199Z,9.80
2018-11-29T01:45:12.965Z,9.80
2018-11-29T01:47:41.400Z,9.70
2018-11-29T01:50:09.863Z,9.70
2018-11-29T01:52:38.272Z,9.70
2018-11-29T01:55:08.063Z,9.70
2018-11-29T01:57:36.597Z,9.70
2018-11-29T02:00:09.592Z,9.80
2018-11-29T02:02:38.063Z,9.80
2018-11-29T02:05:07.856Z,9.80
2018-11-29T02:07:36.375Z,9.80
2018-11-29T02:10:11.819Z,9.80
2018-11-29T02:12:40.607Z,9.80
2018-11-29T02:15:09.180Z,9.70
2018-11-29T02:17:37.584Z,9.70
2018-11-29T02:20:10.478Z,9.70
2018-11-29T02:22:38.871Z,9.70
2018-11-29T02:25:07.520Z,9.70
2018-11-29T02:27:36.115Z,9.70
2018-11-29T02:30:07.065Z,9.80
2018-11-29T02:32:35.432Z,9.80
2018-11-29T02:35:03.860Z,9.70
2018-11-29T02:37:32.238Z,9.80
2018-11-29T02:40:00.628Z,9.80
2018-11-29T02:42:29.057Z,9.80
2018-11-29T02:44:57.496Z,9.80
2018-11-29T02:47:25.882Z,9.80
2018-11-29T02:49:54.300Z,9.80
2018-11-29T02:52:22.696Z,9.80
2018-11-29T02:54:51.105Z,9.80
2018-11-29T03:03:06.583Z,9.80
2018-11-29T03:05:35.006Z,9.80
2018-11-29T03:08:03.456Z,9.80
2018-11-29T03:10:31.840Z,9.80
2018-11-29T03:13:00.271Z,9.80
2018-11-29T03:15:28.679Z,9.80
2018-11-29T03:17:57.061Z,9.80
2018-11-29T03:20:25.435Z,9.80
2018-11-29T03:22:53.821Z,9.80
2018-11-29T03:25:22.233Z,9.80
2018-11-29T03:27:50.637Z,9.80
2018-11-29T03:30:20.866Z,9.80
2018-11-29T03:32:49.250Z,9.80
2018-11-29T03:35:17.657Z,9.80
2018-11-29T03:37:46.116Z,9.80
2018-11-29T03:40:15.560Z,9.90
2018-11-29T03:42:44.482Z,9.90
2018-11-29T03:45:13.805Z,10.00
2018-11-29T03:47:42.562Z,10.00
2018-11-29T03:50:17.112Z,10.00
2018-11-29T03:52:45.796Z,10.00
2018-11-29T03:55:14.256Z,10.00
2018-11-29T03:57:42.844Z,10.00
2018-11-29T04:00:12.769Z,10.00
2018-11-29T04:02:41.211Z,9.90
2018-11-29T04:05:09.661Z,9.90
2018-11-29T04:07:38.110Z,9.90
2018-11-29T04:10:08.626Z,9.90
2018-11-29T04:12:37.203Z,9.80
2018-11-29T04:15:06.768Z,9.80
2018-11-29T04:17:40.730Z,9.80
2018-11-29T04:20:04.909Z,9.70
2018-11-29T04:22:33.329Z,9.70
2018-11-29T04:25:02.467Z,9.80
2018-11-29T04:27:30.853Z,9.70
2018-11-29T04:29:59.269Z,9.70
2018-11-29T04:32:27.662Z,9.70
2018-11-29T04:34:56.045Z,9.70
2018-11-29T04:37:24.449Z,9.70
2018-11-29T04:39:52.820Z,9.60
2018-11-29T04:42:21.221Z,9.60
2018-11-29T04:44:49.643Z,9.60
2018-11-29T04:47:18.031Z,9.60
2018-11-29T04:49:46.442Z,9.60
2018-11-29T04:52:14.895Z,9.60
2018-11-29T04:54:43.559Z,9.70
2018-11-29T04:57:12.008Z,9.60
2018-11-29T04:59:40.440Z,9.70
2018-11-29T05:02:08.875Z,9.70
2018-11-29T05:04:37.274Z,9.70
2018-11-29T05:07:06.232Z,9.70
2018-11-29T05:09:34.627Z,9.70
2018-11-29T05:12:03.127Z,9.80
2018-11-29T05:14:31.609Z,9.80
2018-11-29T05:17:00.082Z,9.80
2018-11-29T05:19:28.575Z,9.80
2018-11-29T05:21:56.987Z,9.80
2018-11-29T05:24:25.373Z,9.80
2018-11-29T05:26:53.787Z,9.80
2018-11-29T05:29:22.197Z,9.80
2018-11-29T05:31:50.624Z,9.80
2018-11-29T05:34:19.398Z,9.80
2018-11-29T05:36:47.792Z,9.80
2018-11-29T05:39:16.247Z,9.90
2018-11-29T05:41:44.660Z,9.90
2018-11-29T05:44:13.099Z,9.80
2018-11-29T05:46:42.686Z,9.80
2018-11-29T05:49:10.257Z,9.80
2018-11-29T05:51:38.674Z,9.80
2018-11-29T05:54:07.167Z,9.80
2018-11-29T05:56:35.614Z,9.90
2018-11-29T05:59:04.316Z,9.90
2018-11-29T06:01:36.175Z,9.80
2018-11-29T06:04:04.653Z,9.90
2018-11-29T06:06:33.057Z,9.90
2018-11-29T06:09:01.489Z,10.00
2018-11-29T06:11:29.879Z,10.00
2018-11-29T06:13:58.325Z,10.10
2018-11-29T06:16:26.744Z,10.10
2018-11-29T06:18:55.182Z,10.10
2018-11-29T06:21:23.590Z,10.10
2018-11-29T06:23:52.015Z,10.20
2018-11-29T06:26:20.471Z,10.10
2018-11-29T06:28:48.876Z,10.10
2018-11-29T06:31:17.656Z,10.10
2018-11-29T06:33:46.107Z,10.10
2018-11-29T06:36:14.548Z,10.10
2018-11-29T06:38:42.981Z,10.10
2018-11-29T06:41:11.428Z,10.20
2018-11-29T06:43:39.863Z,10.20
2018-11-29T06:46:08.263Z,10.30
2018-11-29T06:48:36.693Z,10.30
2018-11-29T06:51:05.130Z,10.30
2018-11-29T06:53:39.349Z,10.30
2018-11-29T06:56:08.538Z,10.30
2018-11-29T06:58:38.015Z,10.30
2018-11-29T07:01:06.529Z,10.30
2018-11-29T07:03:34.956Z,10.40
2018-11-29T07:06:03.364Z,10.40
2018-11-29T07:08:31.749Z,10.40
2018-11-29T07:11:00.157Z,10.40
2018-11-29T07:13:28.557Z,10.40
2018-11-29T07:15:56.996Z,10.40
2018-11-29T07:18:25.407Z,10.50
2018-11-29T07:21:05.277Z,10.60
2018-11-29T07:23:33.664Z,10.70
2018-11-29T07:26:02.067Z,10.70
2018-11-29T07:28:30.496Z,10.70
2018-11-29T07:30:58.883Z,10.70
2018-11-29T07:33:27.281Z,10.70
2018-11-29T07:35:55.714Z,10.80
2018-11-29T07:38:24.165Z,10.80
2018-11-29T07:40:53.239Z,10.80
2018-11-29T07:43:21.612Z,10.80
2018-11-29T07:45:50.051Z,10.90
2018-11-29T07:48:18.452Z,10.90
2018-11-29T07:50:46.869Z,10.90
2018-11-29T07:53:16.305Z,10.90
2018-11-29T07:55:43.731Z,10.90
2018-11-29T07:58:12.134Z,11.00
2018-11-29T08:00:40.572Z,11.00
2018-11-29T08:03:08.966Z,11.00
2018-11-29T08:05:37.413Z,11.10
2018-11-29T08:08:06.660Z,11.10
2018-11-29T08:10:35.101Z,11.10
2018-11-29T08:13:03.561Z,11.10
2018-11-29T08:15:31.992Z,11.20
2018-11-29T08:18:00.643Z,11.20
2018-11-29T08:20:29.213Z,11.10
2018-11-29T08:22:57.593Z,11.20
2018-11-29T08:25:26.004Z,11.30
2018-11-29T08:27:54.425Z,11.30
2018-11-29T08:30:22.852Z,11.30
2018-11-29T08:32:51.245Z,11.20
2018-11-29T08:35:19.733Z,11.20
2018-11-29T08:37:48.168Z,11.20
2018-11-29T08:40:20.530Z,11.20
2018-11-29T08:42:48.968Z,11.20
2018-11-29T08:45:17.430Z,11.30
2018-11-29T08:47:46.099Z,11.20
2018-11-29T08:50:15.417Z,11.10
2018-11-29T08:52:44.803Z,11.00
2018-11-29T08:55:17.208Z,11.00
2018-11-29T08:57:46.480Z,11.00
2018-11-29T09:00:21.677Z,11.00
2018-11-29T09:02:50.509Z,10.90
2018-11-29T09:05:18.947Z,10.90
2018-11-29T09:07:48.644Z,10.90
2018-11-29T09:10:19.179Z,10.80
2018-11-29T09:12:47.680Z,10.70
2018-11-29T09:15:16.748Z,10.80
2018-11-29T09:17:45.543Z,10.70
2018-11-29T09:20:15.157Z,10.70
2018-11-29T09:22:43.587Z,10.70
2018-11-29T09:25:13.893Z,10.60
2018-11-29T09:27:42.308Z,10.60
2018-11-29T09:30:13.026Z,10.60
2018-11-29T09:32:42.430Z,10.60
2018-11-29T09:35:10.854Z,10.60
2018-11-29T09:37:39.256Z,10.70
2018-11-29T09:40:13.072Z,10.70
2018-11-29T09:42:41.594Z,10.70
2018-11-29T09:45:14.644Z,10.70
2018-11-29T09:47:43.790Z,10.60
2018-11-29T09:50:14.532Z,10.60
2018-11-29T09:52:42.951Z,10.60
2018-11-29T09:55:13.228Z,10.50
2018-11-29T09:57:42.024Z,10.60
2018-11-29T10:00:14.227Z,10.60
2018-11-29T10:02:44.304Z,10.70
2018-11-29T10:05:13.297Z,10.70
2018-11-29T10:07:42.059Z,10.70
2018-11-29T10:10:11.229Z,10.70
2018-11-29T10:12:40.039Z,10.80
2018-11-29T10:15:11.964Z,10.80
2018-11-29T10:17:40.393Z,10.90
2018-11-29T10:20:10.587Z,10.90
2018-11-29T10:22:39.434Z,11.00
2018-11-29T10:25:09.696Z,11.10
2018-11-29T10:27:38.109Z,11.10
2018-11-29T10:30:15.328Z,11.10
2018-11-29T10:32:43.771Z,11.10
2018-11-29T10:35:12.480Z,11.10
2018-11-29T10:37:40.911Z,11.20
2018-11-29T10:40:10.390Z,11.20
2018-11-29T10:42:38.932Z,11.20
2018-11-29T10:45:11.565Z,11.20
2018-11-29T10:47:40.239Z,11.20
2018-11-29T10:50:11.080Z,11.20
2018-11-29T10:52:39.828Z,11.20
2018-11-29T10:55:11.177Z,11.20
2018-11-29T10:57:40.377Z,11.20
2018-11-29T11:00:21.333Z,11.20
2018-11-29T11:02:55.359Z,11.20
2018-11-29T11:05:23.780Z,11.10
2018-11-29T11:07:52.192Z,10.90
2018-11-29T11:10:20.632Z,10.90
2018-11-29T11:12:49.042Z,10.80
2018-11-29T11:15:17.463Z,10.80
2018-11-29T11:17:45.896Z,10.80
2018-11-29T11:20:14.645Z,10.80
2018-11-29T11:22:43.044Z,10.80
2018-11-29T11:25:12.228Z,10.80
2018-11-29T11:27:40.617Z,10.80
2018-11-29T11:30:15.214Z,10.90
2018-11-29T11:32:44.439Z,11.00
2018-11-29T11:35:13.326Z,11.10
2018-11-29T11:37:41.710Z,11.20
2018-11-29T11:40:11.595Z,11.40
2018-11-29T11:42:40.040Z,11.30
2018-11-29T11:45:12.758Z,11.30
2018-11-29T11:47:41.165Z,11.30
2018-11-29T11:50:13.896Z,11.30
2018-11-29T11:52:42.370Z,11.20
2018-11-29T11:55:11.694Z,11.20
2018-11-29T11:57:40.169Z,11.20
2018-11-29T12:00:18.114Z,11.10
2018-11-29T12:02:47.223Z,11.20
2018-11-29T12:05:15.560Z,11.10
2018-11-29T12:07:44.346Z,11.20
2018-11-29T12:10:14.044Z,11.20
2018-11-29T12:12:42.807Z,11.40
2018-11-29T12:15:13.141Z,11.50
2018-11-29T12:17:42.420Z,11.50
2018-11-29T12:20:16.087Z,11.50
2018-11-29T12:22:44.529Z,11.60
2018-11-29T12:25:20.075Z,11.70
2018-11-29T12:27:48.492Z,11.60
2018-11-29T12:30:22.741Z,11.60
2018-11-29T12:32:51.941Z,11.60
2018-11-29T12:35:20.340Z,11.70
2018-11-29T12:37:48.775Z,11.80
2018-11-29T12:40:17.429Z,11.80
2018-11-29T12:42:45.825Z,11.80
2018-11-29T12:45:14.793Z,11.80
2018-11-29T12:47:43.644Z,11.80
2018-11-29T12:50:13.675Z,11.70
2018-11-29T12:52:42.084Z,11.60
2018-11-29T12:55:11.172Z,11.50
2018-11-29T12:57:39.577Z,11.40
2018-11-29T13:00:11.827Z,11.40
2018-11-29T13:02:47.322Z,11.30
2018-11-29T13:05:15.799Z,11.30
2018-11-29T13:07:44.456Z,11.30
2018-11-29T13:10:14.753Z,11.20
2018-11-29T13:12:43.185Z,11.30
2018-11-29T13:15:16.359Z,11.20
2018-11-29T13:17:44.707Z,11.20
2018-11-29T13:20:14.373Z,11.20
2018-11-29T13:22:42.817Z,11.20
2018-11-29T13:25:12.758Z,11.20
2018-11-29T13:27:41.842Z,11.20
2018-11-29T13:30:11.727Z,11.20
2018-11-29T13:32:40.561Z,11.20
2018-11-29T13:35:11.313Z,11.20
2018-11-29T13:37:39.705Z,11.30
2018-11-29T13:40:10.720Z,11.30
2018-11-29T13:42:39.225Z,11.30
2018-11-29T13:45:09.632Z,11.30
2018-11-29T13:47:38.450Z,11.30
2018-11-29T13:50:09.682Z,11.30
2018-11-29T13:52:38.113Z,11.30
2018-11-29T13:55:07.575Z,11.30
2018-11-29T13:57:36.353Z,11.30
2018-11-29T14:00:06.921Z,11.30
2018-11-29T14:02:35.328Z,11.30
2018-11-29T14:05:05.902Z,11.20
2018-11-29T14:07:34.277Z,11.10
2018-11-29T14:10:03.524Z,11.10
2018-11-29T14:12:31.924Z,11.00
2018-11-29T14:15:00.357Z,11.00
2018-11-29T14:17:28.768Z,10.90
2018-11-29T14:19:57.927Z,10.80
2018-11-29T14:22:25.640Z,10.80
2018-11-29T14:24:54.044Z,10.70
2018-11-29T14:27:22.440Z,10.70
2018-11-29T14:29:50.857Z,10.60
2018-11-29T14:32:19.244Z,10.60
2018-11-29T14:34:51.745Z,10.50
2018-11-29T14:37:16.102Z,10.50
2018-11-29T14:39:44.495Z,10.40
2018-11-29T14:42:12.936Z,10.50
2018-11-29T14:44:41.359Z,10.50
2018-11-29T14:47:09.766Z,10.50
2018-11-29T14:49:38.177Z,10.50
2018-11-29T14:52:08.120Z,10.50
2018-11-29T14:54:35.512Z,10.50
2018-11-29T14:57:04.336Z,10.50
2018-11-29T14:59:32.740Z,10.50
2018-11-29T15:02:01.166Z,10.50
2018-11-29T15:04:29.632Z,10.40
2018-11-29T15:06:58.091Z,10.40
2018-11-29T15:09:26.519Z,10.40
2018-11-29T15:11:54.988Z,10.40
2018-11-29T15:14:23.387Z,10.40
2018-11-29T15:16:51.804Z,10.40
2018-11-29T15:19:20.198Z,10.40
2018-11-29T15:21:48.647Z,10.40
2018-11-29T15:24:17.032Z,10.30
2018-11-29T15:26:45.476Z,10.30
2018-11-29T15:29:13.877Z,10.30
2018-11-29T15:31:42.271Z,10.20
2018-11-29T15:34:10.670Z,10.20
2018-11-29T15:36:39.086Z,10.20
2018-11-29T15:39:08.632Z,10.10
2018-11-29T15:41:37.241Z,10.10
2018-11-29T15:44:06.001Z,10.10
2018-11-29T15:46:34.834Z,10.10
2018-11-29T15:49:03.348Z,10.10
2018-11-29T15:51:32.102Z,10.10
2018-11-29T15:54:00.544Z,10.10
2018-11-29T15:56:28.969Z,10.10
2018-11-29T15:58:57.368Z,10.10
2018-11-29T16:01:25.790Z,10.10
2018-11-29T16:03:54.234Z,10.00
2018-11-29T16:06:22.670Z,10.00
2018-11-29T16:08:51.058Z,10.00
2018-11-29T16:11:19.473Z,10.00
2018-11-29T16:13:47.856Z,10.00
2018-11-29T16:16:16.310Z,10.00
2018-11-29T16:18:44.701Z,10.00
2018-11-29T16:21:13.136Z,10.00
2018-11-29T16:23:41.851Z,10.00
2018-11-29T16:26:10.246Z,10.00
2018-11-29T16:28:38.817Z,10.00
2018-11-29T16:31:08.601Z,10.00
2018-11-29T16:33:38.604Z,9.90
2018-11-29T16:36:08.086Z,9.90
2018-11-29T16:38:36.832Z,10.00
2018-11-29T16:41:05.355Z,9.90
2018-11-29T16:43:33.783Z,10.00
2018-11-29T16:46:02.739Z,9.90
2018-11-29T16:48:31.176Z,9.90
2018-11-29T16:50:59.682Z,9.80
2018-11-29T16:53:28.096Z,9.80
2018-11-29T16:55:56.481Z,9.90
2018-11-29T16:58:27.502Z,9.90
2018-11-29T17:00:55.899Z,9.90
2018-11-29T17:03:24.348Z,9.90
2018-11-29T17:05:53.106Z,9.90
2018-11-29T17:08:21.728Z,9.80
2018-11-29T17:10:50.527Z,9.80
2018-11-29T17:13:19.504Z,9.80
2018-11-29T17:15:47.922Z,9.80
2018-11-29T17:18:16.324Z,9.80
2018-11-29T17:20:44.712Z,9.70
2018-11-29T17:23:13.983Z,9.70
2018-11-29T17:25:42.389Z,9.70
2018-11-29T17:28:10.787Z,9.70
2018-11-29T17:30:39.227Z,9.80
2018-11-29T17:33:09.103Z,9.80
2018-11-29T17:35:37.532Z,9.80
2018-11-29T17:38:06.892Z,9.80
2018-11-29T17:40:36.280Z,9.80
2018-11-29T17:43:04.771Z,9.80
2018-11-29T17:45:33.521Z,9.80
2018-11-29T17:48:06.486Z,9.90
2018-11-29T17:50:37.659Z,9.90
2018-11-29T17:53:06.781Z,9.90
2018-11-29T17:55:35.268Z,10.00
2018-11-29T17:58:06.485Z,10.00
2018-11-29T18:00:34.932Z,9.90
2018-11-29T18:03:03.328Z,9.90
2018-11-29T18:05:31.701Z,9.90
2018-11-29T18:08:00.152Z,9.90
2018-11-29T18:10:30.518Z,9.90
2018-11-29T18:13:02.906Z,9.90
2018-11-29T18:15:32.951Z,9.90
2018-11-29T18:18:01.373Z,9.90
2018-11-29T18:20:30.132Z,9.90
2018-11-29T18:22:58.605Z,10.00
2018-11-29T18:25:27.240Z,10.00
2018-11-29T18:27:55.689Z,10.00
2018-11-29T18:30:24.367Z,10.10
2018-11-29T18:32:52.845Z,10.10
2018-11-29T18:35:21.753Z,10.10
2018-11-29T18:37:50.209Z,10.10
2018-11-29T18:40:19.764Z,10.10
2018-11-29T18:42:51.377Z,10.10
2018-11-29T18:45:20.292Z,10.10
2018-11-29T18:47:49.906Z,10.10
2018-11-29T18:50:22.123Z,10.10
2018-11-29T18:52:50.652Z,10.10
2018-11-29T18:55:19.467Z,10.10
2018-11-29T18:57:48.217Z,10.20
2018-11-29T19:00:23.048Z,10.20
2018-11-29T19:02:56.762Z,10.30
2018-11-29T19:05:19.940Z,10.30
2018-11-29T19:07:48.352Z,10.40
2018-11-29T19:10:17.604Z,10.40
2018-11-29T19:12:55.284Z,10.40
2018-11-29T19:15:24.074Z,10.40
2018-11-29T19:17:52.931Z,10.40
2018-11-29T19:20:21.712Z,10.40
2018-11-29T19:22:50.577Z,10.40
2018-11-29T19:25:19.760Z,10.40
2018-11-29T19:27:48.200Z,10.40
2018-11-29T19:30:25.783Z,10.40
2018-11-29T19:33:01.033Z,10.40
2018-11-29T19:35:29.441Z,10.30
2018-11-29T19:37:57.839Z,10.30
2018-11-29T19:40:26.259Z,10.30
2018-11-29T19:42:54.660Z,10.20
2018-11-29T19:45:23.120Z,10.30
2018-11-29T19:47:51.531Z,10.20
2018-11-29T19:50:20.291Z,10.20
2018-11-29T19:52:52.268Z,10.20
2018-11-29T19:55:24.352Z,10.20
2018-11-29T19:57:52.808Z,10.10
2018-11-29T20:00:21.221Z,10.10
2018-11-29T20:02:51.952Z,10.10
2018-11-29T20:05:20.362Z,10.10
2018-11-29T20:07:48.841Z,10.10
2018-11-29T20:10:18.182Z,10.10
2018-11-29T20:12:48.297Z,10.10
2018-11-29T20:15:20.218Z,10.10
2018-11-29T20:17:48.639Z,10.10
2018-11-29T20:20:17.037Z,10.20
2018-11-29T20:22:45.485Z,10.20
2018-11-29T20:25:15.014Z,10.20
2018-11-29T20:27:43.568Z,10.20
2018-11-29T20:30:14.360Z,10.20
2018-11-29T20:32:42.887Z,10.20
2018-11-29T20:35:12.161Z,10.20
2018-11-29T20:37:41.099Z,10.20
2018-11-29T20:40:14.420Z,10.10
2018-11-29T20:42:43.009Z,10.10
2018-11-29T20:45:16.952Z,10.10
2018-11-29T20:47:45.388Z,10.10
2018-11-29T20:50:16.684Z,10.20
2018-11-29T20:52:45.841Z,10.20
2018-11-29T20:55:25.729Z,10.20
2018-11-29T20:57:54.188Z,10.20
2018-11-29T21:00:22.688Z,10.20
2018-11-29T21:02:51.097Z,10.20
2018-11-29T21:05:20.597Z,10.20
2018-11-29T21:07:50.850Z,10.20
2018-11-29T21:10:20.559Z,10.20
2018-11-29T21:12:48.973Z,10.20
2018-11-29T21:15:17.728Z,10.20
2018-11-29T21:17:46.498Z,10.30
2018-11-29T21:20:16.109Z,10.30
2018-11-29T21:22:46.266Z,10.30
2018-11-29T21:25:23.349Z,10.40
2018-11-29T21:27:51.888Z,10.40
2018-11-29T21:30:20.714Z,10.40
2018-11-29T21:32:50.047Z,10.40
2018-11-29T21:35:21.854Z,10.50
2018-11-29T21:37:51.657Z,10.50
2018-11-29T21:40:28.228Z,10.60
2018-11-29T21:42:57.065Z,10.60
2018-11-29T21:45:25.527Z,10.70
2018-11-29T21:47:54.171Z,10.70
2018-11-29T21:50:22.702Z,10.80
2018-11-29T21:52:51.196Z,10.80
2018-11-29T21:55:19.638Z,10.80
2018-11-29T21:57:48.281Z,10.70
2018-11-29T22:00:19.356Z,10.70
2018-11-29T22:02:52.100Z,10.70
2018-11-29T22:05:20.617Z,10.70
2018-11-29T22:07:49.038Z,10.60
2018-11-29T22:10:17.489Z,10.60
2018-11-29T22:12:45.944Z,10.60
2018-11-29T22:15:14.395Z,10.60
2018-11-29T22:18:17.227Z,10.50
2018-11-29T22:20:45.908Z,10.50
2018-11-29T22:23:14.441Z,10.50
2018-11-29T22:25:43.354Z,10.50
2018-11-29T22:28:11.795Z,10.50
2018-11-29T22:30:41.379Z,10.50
2018-11-29T22:33:08.899Z,10.50
2018-11-29T22:35:37.521Z,10.50
2018-11-29T22:38:06.776Z,10.50
2018-11-29T22:40:35.397Z,10.50
2018-11-29T22:43:04.260Z,10.50
2018-11-29T22:45:32.708Z,10.50
2018-11-29T22:48:01.128Z,10.60
2018-11-29T22:50:29.608Z,10.50
2018-11-29T22:52:58.043Z,10.50
2018-11-29T22:55:26.455Z,10.50
2018-11-29T22:57:54.892Z,10.50
2018-11-29T23:00:23.849Z,10.50
2018-11-29T23:02:52.325Z,10.50
2018-11-29T23:05:21.149Z,10.50
2018-11-29T23:07:49.574Z,10.50
2018-11-29T23:10:17.963Z,10.50
2018-11-29T23:12:46.549Z,10.50
2018-11-29T23:15:15.146Z,10.50
2018-11-29T23:17:43.538Z,10.50
2018-11-29T23:20:14.618Z,10.50
2018-11-29T23:22:43.049Z,10.50
2018-11-29T23:25:13.488Z,10.50
2018-11-29T23:27:41.984Z,10.50
2018-11-29T23:30:14.795Z,10.50
2018-11-29T23:32:43.440Z,10.50
2018-11-29T23:35:13.072Z,10.50
2018-11-29T23:37:41.476Z,10.50
2018-11-29T23:40:12.920Z,10.50
2018-11-29T23:42:41.319Z,10.50
2018-11-29T23:45:11.553Z,10.50
2018-11-29T23:47:40.685Z,10.50
2018-11-29T23:50:15.549Z,10.50
2018-11-29T23:52:44.096Z,10.50
2018-11-29T23:55:15.281Z,10.50
2018-11-29T23:57:43.667Z,10.50
